MyMeetScores TOP 100 TOP TEAMS UPCOMING MEETS COMPLETED MEETS LATEST MEETS ADD SCORES SUPPORT SHOP
Your Top 100 Stuffed AnimalsShop@
MyMeetScores
 
Kelsey Nudera, St. Charles Gymnastics Academy - MyMeetScores.com
Kelsey Nudera
St. Charles Gymnastics Academy
Personal Bests
Level Vault Bars Beam Floor AA
3 9.325 9.175 9.375 9.100 36.825
4 9.700 9.925 9.875 9.750 39.000
7 9.425 9.575 9.625 9.525 38.100
8 9.625 9.725 9.600 9.425 37.825
9 9.300 8.850 9.000 8.950 35.300
Scores on America's Top 100as of 01.28.2023
Year Level Vault Bars Beam Floor AA
2019 438.625
2020 49.7009.9259.875, 9.850, 9.8009.75039.000, 38.750, 38.675

Click here to view our exclusive Top 100 Collection
Meet Scores
Date Meet Team Session Level Division Vault Bars Beam Floor AA
2023-01-27 King Arthur Invitational St. Charles Gymnastics Academy 3 9 Junior 9.225 4 7.950 5 8.750 2 8.650 5T 34.575 4T
2023-01-13 St Jude Benefit Meet St. Charles Gymnastics Academy 5B 9 Jr A 9.300 2 8.850 4 9.000 4T 8.150 10 35.300 4
2022-12-09 St Nick Invite St. Charles Gymnastics Academy 2A 9 Jr 9.125 2 7.850 5 8.050 5 8.950 4 33.975 4
2022-04-28 Region 5 Level 6-8 Regional Championship St. Charles Gymnastics Academy B09 8 Ch A1 9.550 7T 8.000 26 9.600 7T 9.425 16T 36.575 25
2022-04-27 2022 Region 5 Level 6,7,8 Championships St. Charles Gymnastics Academy B09 8 Ch A1 9.550 7T 8.000 26 9.600 7T 9.425 16T 36.575 25
2022-04-01 Level 6-7-8 State 2022 St. Charles Gymnastics Academy 01 8 Jr A 9.625 1 9.125 19T 9.325 9T 9.375 14T 37.450 6
2022-02-25 Gasparilla Classic St. Charles Gymnastics Academy B09 8 L8 b9 g1 9.425 4 8.850 6 9.250 2 9.275 7 36.800 2
2022-02-18 BIG Classic 2022 St. Charles Gymnastics Academy 1A 8 Junior A 8.750 6 8.775 6 9.150 4T 9.150 3 35.825 3T
2022-02-11 SCGA Classic 2022 St. Charles Gymnastics Academy F3 8 Jr A 9.450 2 9.425 1 9.550 1 9.400 2T 37.825 1
2022-01-21 King Arthur Invitational 2022 St. Charles Gymnastics Academy 4 8 Youth 9.475 1 9.550 3 9.500 3 9.225 4 37.750 1
2022-01-07 St Jude Benefit Meet 2022 St. Charles Gymnastics Academy 1B 8 Jr A 9.325 3 9.725 3 9.325 1 9.350 4T 37.725 1
2021-12-10 St. Nick Invite 2021 St. Charles Gymnastics Academy 3A 8 JrA 9.450 3T 9.375 3 9.300 2 9.075 3 37.200 2
2021-04-09 Illinois Level 7 8 State Championships St. Charles Gymnastics Academy 1 7 Jr A 9.425 4T 9.575 10T 9.575 5T 9.525 9T 38.100 6
2021-03-12 LUCKY INVITATIONAL St. Charles Gymnastics Academy B07 7 Jr A 9.275 2 9.525 4T 9.175 10 9.450 5 37.425 4T
2021-02-19 BIG Classic 2021 St. Charles Gymnastics Academy 8A 7 Junior A 9.075 4 9.475 5 9.550 1 9.300 7 37.400 2
2021-01-21 King Arthur Invitational St. Charles Gymnastics Academy 5 7 CH 8.750 7 9.300 6 9.625 2 9.500 3T 37.175 4
2020-03-06 Illinois Level 4 State Championships St. Charles Gymnastics Academy 2 4 Ch E 9.550 4 9.925 1 9.875 1 9.650 1 39.000 1
2020-02-21 Great Western Invitational - Women's St. Charles Gymnastics Academy 05 4 Filly 9.450 1 9.700 1 9.850 1 9.750 1 38.750 1
2020-02-14 Big Classic St. Charles Gymnastics Academy 3B 4 Child C 9.250 1 9.550 1T 9.800 2T 9.475 3 38.075 1
2020-02-07 SCGA Classic St. Charles Gymnastics Academy 4 4 child B 9.250 2 9.650 1 9.750 1 8.450 8T 37.100 1
2020-01-24 King Arthur Invitational St. Charles Gymnastics Academy 1 4 Jr B 9.100 3 9.525 1 9.725 1 9.500 1 37.850 1
2020-01-10 St Jude Benefit Meet St. Charles Gymnastics Academy 3A 4 Jr B 9.700 1 9.775 1 9.525 1 9.675 1 38.675 1
2019-12-13 2019 St Nick St. Charles Gymnastics Academy 6B 4 JrA 9.500 2 9.700 1 9.675 1 9.750 1 38.625 1
2019-03-22 Illinois Gymnastics State Championships St. Charles Gymnastics Academy 8 4 Ch A 9.200 3T 9.575 6T 9.225 12 9.475 5T 37.475 6
2019-02-15 Women's Midwest Open St. Charles Gymnastics Academy 15 4 Junior A 8.400 8 8.300 13 9.400 4T 9.100 9 35.200 6
2019-02-08 IGI Chicago Style 2019 St. Charles Gymnastics Academy 38 4 231 Lakeshore L4 A 9.025 5 8.700 12 9.025 10 8.900 4 35.650 8
2019-01-25 King Arthur Invitational St. Charles Gymnastics Academy 9 4 JR A 8.350 8 9.100 5T 9.000 7T 9.050 6 35.500 5
2019-01-11 St Jude Benefit Meet St. Charles Gymnastics Academy 7A 4 Jr A 9.000 4T 8.650 5 9.425 2T 9.250 5T 36.325 4
2018-12-07 St. Nick Invite 2018 St. Charles Gymnastics Academy 5A 4 JrA 8.800 6T 8.700 9 9.000 6 9.225 4T 35.725 7
2018-02-23 Kinetic Classic St. Charles Gymnastics Academy 5 3 Younger 8.725 55T 8.550 74 9.225 26 8.825 66T 35.325 65
2018-02-16 Big Classic St. Charles Gymnastics Academy 8B 3 Child A 8.800 10T 8.750 8T 9.375 1 9.050 5 35.975 7
2018-01-26 King Arthur Invitational St. Charles Gymnastics Academy 7 3 JRA 9.325 5T 9.175 2 9.375 2 8.950 3T 36.825 1
2018-01-12 St Jude Benefit Meet St. Charles Gymnastics Academy 7A 3 JrA 8.725 9 8.850 6 8.600 6 9.100 3 35.275 5
2017-12-14 2017 Women's Hawaiian Pineapple Classic St. Charles Gymnastics Academy 4A 3 Age7U 9.050 7 8.500 8T 8.800 3 8.550 6T 34.900 6
2017-12-01 Ultimate Wish Classic St. Charles Gymnastics Academy 5 3 CH 8.800 14T 8.950 6 9.150 1 8.750 8T 35.650 4
2017-11-17 SCGA Classic St. Charles Gymnastics Academy 1 3 Child 9.125 5 8.825 4 8.900 1 8.825 5 35.675 2